sensor_id;sensor_type;location;lat;lon;timestamp;P1;durP1;ratioP1;P2;durP2;ratioP2
61741;SDS011;47650;49.848;9.620;2024-03-06T00:01:20;78.43;;;44.80;;
61741;SDS011;47650;49.848;9.620;2024-03-06T00:03:46;77.93;;;44.33;;
61741;SDS011;47650;49.848;9.620;2024-03-06T00:06:11;75.65;;;44.58;;
61741;SDS011;47650;49.848;9.620;2024-03-06T00:08:36;86.18;;;45.28;;
61741;SDS011;47650;49.848;9.620;2024-03-06T00:11:02;107.70;;;49.58;;
61741;SDS011;47650;49.848;9.620;2024-03-06T00:13:28;97.18;;;48.42;;
61741;SDS011;47650;49.848;9.620;2024-03-06T00:15:54;77.25;;;44.22;;
61741;SDS011;47650;49.848;9.620;2024-03-06T00:18:19;86.97;;;45.38;;
61741;SDS011;47650;49.848;9.620;2024-03-06T00:20:45;78.25;;;44.40;;
61741;SDS011;47650;49.848;9.620;2024-03-06T00:23:12;86.30;;;46.15;;
61741;SDS011;47650;49.848;9.620;2024-03-06T00:25:39;89.32;;;47.00;;
61741;SDS011;47650;49.848;9.620;2024-03-06T00:28:04;131.60;;;54.40;;
61741;SDS011;47650;49.848;9.620;2024-03-06T00:30:31;119.88;;;51.13;;
61741;SDS011;47650;49.848;9.620;2024-03-06T00:32:59;97.53;;;47.15;;
61741;SDS011;47650;49.848;9.620;2024-03-06T00:35:25;100.10;;;50.50;;
61741;SDS011;47650;49.848;9.620;2024-03-06T00:37:56;108.20;;;50.80;;
61741;SDS011;47650;49.848;9.620;2024-03-06T00:42:52;103.65;;;48.83;;
61741;SDS011;47650;49.848;9.620;2024-03-06T00:45:17;121.50;;;52.65;;
61741;SDS011;47650;49.848;9.620;2024-03-06T00:47:44;117.38;;;52.20;;
61741;SDS011;47650;49.848;9.620;2024-03-06T00:50:10;128.05;;;55.17;;
61741;SDS011;47650;49.848;9.620;2024-03-06T00:52:35;129.75;;;55.15;;
61741;SDS011;47650;49.848;9.620;2024-03-06T00:55:01;101.38;;;48.55;;
61741;SDS011;47650;49.848;9.620;2024-03-06T00:57:26;118.32;;;53.38;;
61741;SDS011;47650;49.848;9.620;2024-03-06T00:59:51;122.50;;;52.53;;
61741;SDS011;47650;49.848;9.620;2024-03-06T01:02:20;111.25;;;53.35;;
61741;SDS011;47650;49.848;9.620;2024-03-06T01:04:45;142.18;;;54.38;;
61741;SDS011;47650;49.848;9.620;2024-03-06T01:07:11;142.85;;;53.55;;
61741;SDS011;47650;49.848;9.620;2024-03-06T01:09:36;113.82;;;51.63;;
61741;SDS011;47650;49.848;9.620;2024-03-06T01:12:01;141.35;;;54.88;;
61741;SDS011;47650;49.848;9.620;2024-03-06T01:14:27;85.60;;;45.38;;
61741;SDS011;47650;49.848;9.620;2024-03-06T01:16:52;107.68;;;49.88;;
61741;SDS011;47650;49.848;9.620;2024-03-06T01:19:17;101.70;;;48.63;;
61741;SDS011;47650;49.848;9.620;2024-03-06T01:21:43;129.82;;;50.60;;
61741;SDS011;47650;49.848;9.620;2024-03-06T01:24:09;112.78;;;51.25;;
61741;SDS011;47650;49.848;9.620;2024-03-06T01:26:38;122.85;;;52.03;;
61741;SDS011;47650;49.848;9.620;2024-03-06T01:29:05;107.63;;;50.78;;
61741;SDS011;47650;49.848;9.620;2024-03-06T01:31:30;134.73;;;55.88;;
61741;SDS011;47650;49.848;9.620;2024-03-06T01:33:56;173.57;;;57.72;;
61741;SDS011;47650;49.848;9.620;2024-03-06T01:36:21;108.57;;;50.65;;
61741;SDS011;47650;49.848;9.620;2024-03-06T01:38:47;127.10;;;52.10;;
61741;SDS011;47650;49.848;9.620;2024-03-06T01:41:15;142.32;;;52.90;;
61741;SDS011;47650;49.848;9.620;2024-03-06T01:43:40;128.88;;;55.22;;
61741;SDS011;47650;49.848;9.620;2024-03-06T01:46:06;101.07;;;49.00;;
61741;SDS011;47650;49.848;9.620;2024-03-06T01:48:32;110.18;;;50.80;;
61741;SDS011;47650;49.848;9.620;2024-03-06T01:50:59;143.02;;;52.40;;
61741;SDS011;47650;49.848;9.620;2024-03-06T01:53:30;121.60;;;52.22;;
61741;SDS011;47650;49.848;9.620;2024-03-06T01:55:58;137.68;;;52.03;;
61741;SDS011;47650;49.848;9.620;2024-03-06T01:58:25;112.97;;;51.17;;
61741;SDS011;47650;49.848;9.620;2024-03-06T02:00:51;134.07;;;50.42;;
61741;SDS011;47650;49.848;9.620;2024-03-06T02:03:17;140.30;;;53.00;;
61741;SDS011;47650;49.848;9.620;2024-03-06T02:05:44;101.45;;;47.78;;
61741;SDS011;47650;49.848;9.620;2024-03-06T02:08:10;121.32;;;50.83;;
61741;SDS011;47650;49.848;9.620;2024-03-06T02:10:36;120.95;;;50.00;;
61741;SDS011;47650;49.848;9.620;2024-03-06T02:13:03;103.22;;;47.75;;
61741;SDS011;47650;49.848;9.620;2024-03-06T02:15:30;110.55;;;48.83;;
61741;SDS011;47650;49.848;9.620;2024-03-06T02:17:55;91.93;;;47.63;;
61741;SDS011;47650;49.848;9.620;2024-03-06T02:20:24;94.28;;;47.72;;
61741;SDS011;47650;49.848;9.620;2024-03-06T02:22:50;89.43;;;46.60;;
61741;SDS011;47650;49.848;9.620;2024-03-06T02:25:15;100.78;;;47.30;;
61741;SDS011;47650;49.848;9.620;2024-03-06T02:27:42;94.13;;;43.97;;
61741;SDS011;47650;49.848;9.620;2024-03-06T02:30:08;97.43;;;45.60;;
61741;SDS011;47650;49.848;9.620;2024-03-06T02:32:36;94.47;;;45.15;;
61741;SDS011;47650;49.848;9.620;2024-03-06T02:35:02;108.43;;;47.40;;
61741;SDS011;47650;49.848;9.620;2024-03-06T02:37:28;105.28;;;47.30;;
61741;SDS011;47650;49.848;9.620;2024-03-06T02:39:53;72.53;;;41.13;;
61741;SDS011;47650;49.848;9.620;2024-03-06T02:42:21;60.75;;;37.53;;
61741;SDS011;47650;49.848;9.620;2024-03-06T02:44:48;77.05;;;42.55;;
61741;SDS011;47650;49.848;9.620;2024-03-06T02:47:13;77.22;;;40.88;;
61741;SDS011;47650;49.848;9.620;2024-03-06T02:49:41;96.20;;;46.95;;
61741;SDS011;47650;49.848;9.620;2024-03-06T02:52:08;103.38;;;46.90;;
61741;SDS011;47650;49.848;9.620;2024-03-06T02:54:33;99.30;;;44.17;;
61741;SDS011;47650;49.848;9.620;2024-03-06T02:56:58;97.28;;;45.20;;
61741;SDS011;47650;49.848;9.620;2024-03-06T02:59:25;78.70;;;40.30;;
61741;SDS011;47650;49.848;9.620;2024-03-06T03:01:50;122.85;;;47.58;;
61741;SDS011;47650;49.848;9.620;2024-03-06T03:04:15;130.20;;;49.35;;
61741;SDS011;47650;49.848;9.620;2024-03-06T03:06:41;124.30;;;50.50;;
61741;SDS011;47650;49.848;9.620;2024-03-06T03:09:13;114.88;;;47.20;;
61741;SDS011;47650;49.848;9.620;2024-03-06T03:11:38;119.40;;;49.42;;
61741;SDS011;47650;49.848;9.620;2024-03-06T03:14:08;132.90;;;52.28;;
61741;SDS011;47650;49.848;9.620;2024-03-06T03:16:34;129.07;;;47.88;;
61741;SDS011;47650;49.848;9.620;2024-03-06T03:19:00;126.07;;;47.72;;
61741;SDS011;47650;49.848;9.620;2024-03-06T03:21:27;131.25;;;48.88;;
61741;SDS011;47650;49.848;9.620;2024-03-06T03:23:52;113.95;;;42.67;;
61741;SDS011;47650;49.848;9.620;2024-03-06T03:26:18;93.95;;;37.45;;
61741;SDS011;47650;49.848;9.620;2024-03-06T03:28:43;104.03;;;38.97;;
61741;SDS011;47650;49.848;9.620;2024-03-06T03:31:09;138.50;;;41.05;;
61741;SDS011;47650;49.848;9.620;2024-03-06T03:33:44;105.93;;;38.97;;
61741;SDS011;47650;49.848;9.620;2024-03-06T03:36:09;97.88;;;36.85;;
61741;SDS011;47650;49.848;9.620;2024-03-06T03:38:38;109.75;;;35.47;;
61741;SDS011;47650;49.848;9.620;2024-03-06T03:41:11;132.98;;;38.47;;
61741;SDS011;47650;49.848;9.620;2024-03-06T03:43:41;86.63;;;35.42;;
61741;SDS011;47650;49.848;9.620;2024-03-06T03:46:08;96.63;;;37.58;;
61741;SDS011;47650;49.848;9.620;2024-03-06T03:48:35;95.85;;;35.47;;
61741;SDS011;47650;49.848;9.620;2024-03-06T03:51:03;89.15;;;34.70;;
61741;SDS011;47650;49.848;9.620;2024-03-06T03:53:32;109.72;;;37.08;;
61741;SDS011;47650;49.848;9.620;2024-03-06T03:55:58;113.25;;;39.25;;
61741;SDS011;47650;49.848;9.620;2024-03-06T03:58:24;98.05;;;36.65;;
61741;SDS011;47650;49.848;9.620;2024-03-06T04:00:50;151.43;;;42.35;;
61741;SDS011;47650;49.848;9.620;2024-03-06T04:03:20;122.45;;;40.33;;
61741;SDS011;47650;49.848;9.620;2024-03-06T04:05:48;235.40;;;46.92;;
61741;SDS011;47650;49.848;9.620;2024-03-06T04:08:14;202.00;;;46.30;;
61741;SDS011;47650;49.848;9.620;2024-03-06T04:10:42;146.10;;;42.60;;
61741;SDS011;47650;49.848;9.620;2024-03-06T04:13:11;235.95;;;51.40;;
61741;SDS011;47650;49.848;9.620;2024-03-06T04:15:38;131.95;;;42.15;;
61741;SDS011;47650;49.848;9.620;2024-03-06T04:18:03;130.98;;;44.53;;
61741;SDS011;47650;49.848;9.620;2024-03-06T04:20:28;120.40;;;41.80;;
61741;SDS011;47650;49.848;9.620;2024-03-06T04:22:55;90.35;;;37.88;;
61741;SDS011;47650;49.848;9.620;2024-03-06T04:25:21;123.88;;;44.70;;
61741;SDS011;47650;49.848;9.620;2024-03-06T04:27:48;104.60;;;40.58;;
61741;SDS011;47650;49.848;9.620;2024-03-06T04:30:14;94.03;;;37.55;;
61741;SDS011;47650;49.848;9.620;2024-03-06T04:32:40;87.55;;;36.22;;
61741;SDS011;47650;49.848;9.620;2024-03-06T04:35:06;133.68;;;42.25;;
61741;SDS011;47650;49.848;9.620;2024-03-06T04:37:34;106.72;;;39.78;;
61741;SDS011;47650;49.848;9.620;2024-03-06T04:39:59;73.95;;;32.40;;
61741;SDS011;47650;49.848;9.620;2024-03-06T04:42:24;71.82;;;34.38;;
61741;SDS011;47650;49.848;9.620;2024-03-06T04:44:50;74.88;;;34.85;;
61741;SDS011;47650;49.848;9.620;2024-03-06T04:47:15;94.18;;;38.85;;
61741;SDS011;47650;49.848;9.620;2024-03-06T04:49:41;75.47;;;34.15;;
61741;SDS011;47650;49.848;9.620;2024-03-06T04:52:07;75.50;;;34.55;;
61741;SDS011;47650;49.848;9.620;2024-03-06T04:54:34;58.20;;;31.20;;
61741;SDS011;47650;49.848;9.620;2024-03-06T04:57:00;63.85;;;32.50;;
61741;SDS011;47650;49.848;9.620;2024-03-06T04:59:26;76.05;;;34.20;;
61741;SDS011;47650;49.848;9.620;2024-03-06T05:01:52;59.40;;;31.90;;
61741;SDS011;47650;49.848;9.620;2024-03-06T05:04:17;66.50;;;32.10;;
61741;SDS011;47650;49.848;9.620;2024-03-06T05:06:42;80.43;;;35.38;;
61741;SDS011;47650;49.848;9.620;2024-03-06T05:09:09;71.05;;;33.05;;
61741;SDS011;47650;49.848;9.620;2024-03-06T05:11:36;49.63;;;28.98;;
61741;SDS011;47650;49.848;9.620;2024-03-06T05:14:03;65.70;;;32.78;;
61741;SDS011;47650;49.848;9.620;2024-03-06T05:16:28;69.95;;;33.58;;
61741;SDS011;47650;49.848;9.620;2024-03-06T05:18:55;56.50;;;29.90;;
61741;SDS011;47650;49.848;9.620;2024-03-06T05:21:20;52.10;;;30.00;;
61741;SDS011;47650;49.848;9.620;2024-03-06T05:23:47;51.33;;;28.85;;
61741;SDS011;47650;49.848;9.620;2024-03-06T05:26:14;67.53;;;32.75;;
61741;SDS011;47650;49.848;9.620;2024-03-06T05:28:40;68.25;;;32.83;;
61741;SDS011;47650;49.848;9.620;2024-03-06T05:31:15;80.45;;;33.85;;
61741;SDS011;47650;49.848;9.620;2024-03-06T05:33:44;89.00;;;36.38;;
61741;SDS011;47650;49.848;9.620;2024-03-06T05:36:11;90.72;;;40.85;;
61741;SDS011;47650;49.848;9.620;2024-03-06T05:38:38;79.20;;;37.95;;
61741;SDS011;47650;49.848;9.620;2024-03-06T05:41:05;92.13;;;37.75;;
61741;SDS011;47650;49.848;9.620;2024-03-06T05:43:30;77.82;;;35.15;;
61741;SDS011;47650;49.848;9.620;2024-03-06T05:45:55;105.38;;;40.60;;
61741;SDS011;47650;49.848;9.620;2024-03-06T05:48:20;81.93;;;34.95;;
61741;SDS011;47650;49.848;9.620;2024-03-06T05:50:46;71.18;;;34.25;;
61741;SDS011;47650;49.848;9.620;2024-03-06T05:53:11;109.28;;;40.42;;
61741;SDS011;47650;49.848;9.620;2024-03-06T05:55:37;96.25;;;37.58;;
61741;SDS011;47650;49.848;9.620;2024-03-06T05:58:03;76.53;;;34.10;;
61741;SDS011;47650;49.848;9.620;2024-03-06T06:00:30;80.45;;;32.88;;
61741;SDS011;47650;49.848;9.620;2024-03-06T06:02:55;70.07;;;30.65;;
61741;SDS011;47650;49.848;9.620;2024-03-06T06:05:21;56.13;;;27.42;;
61741;SDS011;47650;49.848;9.620;2024-03-06T06:07:48;83.53;;;33.45;;
61741;SDS011;47650;49.848;9.620;2024-03-06T06:10:13;88.65;;;33.15;;
61741;SDS011;47650;49.848;9.620;2024-03-06T06:12:39;71.82;;;32.97;;
61741;SDS011;47650;49.848;9.620;2024-03-06T06:15:04;85.07;;;35.55;;
61741;SDS011;47650;49.848;9.620;2024-03-06T06:17:32;74.63;;;42.00;;
61741;SDS011;47650;49.848;9.620;2024-03-06T06:19:57;72.22;;;36.20;;
61741;SDS011;47650;49.848;9.620;2024-03-06T06:22:22;77.80;;;33.55;;
61741;SDS011;47650;49.848;9.620;2024-03-06T06:24:48;63.15;;;32.53;;
61741;SDS011;47650;49.848;9.620;2024-03-06T06:27:13;66.53;;;31.50;;
61741;SDS011;47650;49.848;9.620;2024-03-06T06:29:40;45.13;;;29.00;;
61741;SDS011;47650;49.848;9.620;2024-03-06T06:32:06;72.20;;;34.30;;
61741;SDS011;47650;49.848;9.620;2024-03-06T06:34:34;41.47;;;27.70;;
61741;SDS011;47650;49.848;9.620;2024-03-06T06:37:00;67.32;;;32.55;;
61741;SDS011;47650;49.848;9.620;2024-03-06T06:39:25;51.83;;;29.55;;
61741;SDS011;47650;49.848;9.620;2024-03-06T06:41:51;48.40;;;28.23;;
61741;SDS011;47650;49.848;9.620;2024-03-06T06:44:16;42.70;;;26.60;;
61741;SDS011;47650;49.848;9.620;2024-03-06T06:46:42;41.10;;;26.08;;
61741;SDS011;47650;49.848;9.620;2024-03-06T06:49:07;66.65;;;31.05;;
61741;SDS011;47650;49.848;9.620;2024-03-06T06:51:33;52.72;;;27.40;;
61741;SDS011;47650;49.848;9.620;2024-03-06T06:54:00;63.97;;;32.13;;
61741;SDS011;47650;49.848;9.620;2024-03-06T06:56:25;68.68;;;31.95;;
61741;SDS011;47650;49.848;9.620;2024-03-06T06:58:51;57.42;;;30.33;;
61741;SDS011;47650;49.848;9.620;2024-03-06T07:01:16;50.28;;;27.95;;
61741;SDS011;47650;49.848;9.620;2024-03-06T07:03:41;53.42;;;30.08;;
61741;SDS011;47650;49.848;9.620;2024-03-06T07:06:08;46.38;;;27.10;;
61741;SDS011;47650;49.848;9.620;2024-03-06T07:08:33;46.10;;;27.65;;
61741;SDS011;47650;49.848;9.620;2024-03-06T07:11:00;37.80;;;25.63;;
61741;SDS011;47650;49.848;9.620;2024-03-06T07:13:25;44.90;;;26.77;;
61741;SDS011;47650;49.848;9.620;2024-03-06T07:15:51;45.10;;;26.73;;
61741;SDS011;47650;49.848;9.620;2024-03-06T07:18:16;44.13;;;25.85;;
61741;SDS011;47650;49.848;9.620;2024-03-06T07:20:43;33.00;;;22.92;;
61741;SDS011;47650;49.848;9.620;2024-03-06T07:23:08;31.50;;;23.25;;
61741;SDS011;47650;49.848;9.620;2024-03-06T07:25:34;98.80;;;60.42;;
61741;SDS011;47650;49.848;9.620;2024-03-06T07:28:00;61.60;;;37.08;;
61741;SDS011;47650;49.848;9.620;2024-03-06T07:30:26;50.65;;;33.15;;
61741;SDS011;47650;49.848;9.620;2024-03-06T07:32:51;35.40;;;24.98;;
61741;SDS011;47650;49.848;9.620;2024-03-06T07:35:16;38.13;;;26.90;;
61741;SDS011;47650;49.848;9.620;2024-03-06T07:37:42;30.92;;;23.15;;
61741;SDS011;47650;49.848;9.620;2024-03-06T07:40:09;29.25;;;22.55;;
61741;SDS011;47650;49.848;9.620;2024-03-06T07:42:35;25.35;;;20.38;;
61741;SDS011;47650;49.848;9.620;2024-03-06T07:45:00;24.50;;;18.52;;
61741;SDS011;47650;49.848;9.620;2024-03-06T07:47:25;26.35;;;19.65;;
61741;SDS011;47650;49.848;9.620;2024-03-06T07:49:53;23.65;;;18.75;;
61741;SDS011;47650;49.848;9.620;2024-03-06T07:52:20;27.17;;;21.30;;
61741;SDS011;47650;49.848;9.620;2024-03-06T07:54:45;25.75;;;20.95;;
61741;SDS011;47650;49.848;9.620;2024-03-06T07:57:12;22.70;;;18.50;;
61741;SDS011;47650;49.848;9.620;2024-03-06T07:59:39;20.95;;;17.50;;
61741;SDS011;47650;49.848;9.620;2024-03-06T08:02:11;21.67;;;18.80;;
61741;SDS011;47650;49.848;9.620;2024-03-06T08:04:37;22.00;;;17.08;;
61741;SDS011;47650;49.848;9.620;2024-03-06T08:07:02;18.95;;;16.85;;
61741;SDS011;47650;49.848;9.620;2024-03-06T08:09:27;18.63;;;16.20;;
61741;SDS011;47650;49.848;9.620;2024-03-06T08:11:54;19.23;;;16.65;;
61741;SDS011;47650;49.848;9.620;2024-03-06T08:14:19;18.75;;;15.05;;
61741;SDS011;47650;49.848;9.620;2024-03-06T08:16:46;18.52;;;16.58;;
61741;SDS011;47650;49.848;9.620;2024-03-06T08:19:12;17.25;;;15.30;;
61741;SDS011;47650;49.848;9.620;2024-03-06T08:21:39;16.05;;;14.32;;
61741;SDS011;47650;49.848;9.620;2024-03-06T08:24:04;16.98;;;15.10;;
61741;SDS011;47650;49.848;9.620;2024-03-06T08:26:30;19.42;;;15.45;;
61741;SDS011;47650;49.848;9.620;2024-03-06T08:28:56;20.05;;;15.93;;
61741;SDS011;47650;49.848;9.620;2024-03-06T08:31:21;25.75;;;16.98;;
61741;SDS011;47650;49.848;9.620;2024-03-06T08:33:46;17.83;;;14.77;;
61741;SDS011;47650;49.848;9.620;2024-03-06T08:36:12;17.95;;;15.45;;
61741;SDS011;47650;49.848;9.620;2024-03-06T08:38:38;17.33;;;15.38;;
61741;SDS011;47650;49.848;9.620;2024-03-06T08:41:05;16.25;;;14.55;;
61741;SDS011;47650;49.848;9.620;2024-03-06T08:43:31;16.10;;;14.40;;
61741;SDS011;47650;49.848;9.620;2024-03-06T08:45:58;17.10;;;15.27;;
61741;SDS011;47650;49.848;9.620;2024-03-06T08:48:24;17.20;;;14.00;;
61741;SDS011;47650;49.848;9.620;2024-03-06T08:50:50;16.70;;;15.00;;
61741;SDS011;47650;49.848;9.620;2024-03-06T08:53:18;15.93;;;14.25;;
61741;SDS011;47650;49.848;9.620;2024-03-06T08:55:43;16.52;;;14.65;;
61741;SDS011;47650;49.848;9.620;2024-03-06T08:58:08;17.80;;;15.65;;
61741;SDS011;47650;49.848;9.620;2024-03-06T09:00:36;16.50;;;14.48;;
61741;SDS011;47650;49.848;9.620;2024-03-06T09:03:02;17.38;;;14.18;;
61741;SDS011;47650;49.848;9.620;2024-03-06T09:05:27;16.58;;;14.57;;
61741;SDS011;47650;49.848;9.620;2024-03-06T09:08:00;19.70;;;17.05;;
61741;SDS011;47650;49.848;9.620;2024-03-06T09:10:25;17.85;;;14.82;;
61741;SDS011;47650;49.848;9.620;2024-03-06T09:12:50;16.75;;;14.98;;
61741;SDS011;47650;49.848;9.620;2024-03-06T09:15:16;17.98;;;15.60;;
61741;SDS011;47650;49.848;9.620;2024-03-06T09:17:43;21.23;;;16.15;;
61741;SDS011;47650;49.848;9.620;2024-03-06T09:20:09;17.75;;;15.85;;
61741;SDS011;47650;49.848;9.620;2024-03-06T09:22:37;18.23;;;16.25;;
61741;SDS011;47650;49.848;9.620;2024-03-06T09:25:03;19.17;;;15.48;;
61741;SDS011;47650;49.848;9.620;2024-03-06T09:27:29;21.90;;;18.92;;
61741;SDS011;47650;49.848;9.620;2024-03-06T09:29:54;19.27;;;16.83;;
61741;SDS011;47650;49.848;9.620;2024-03-06T09:32:21;18.83;;;15.73;;
61741;SDS011;47650;49.848;9.620;2024-03-06T09:34:47;17.52;;;15.73;;
61741;SDS011;47650;49.848;9.620;2024-03-06T09:37:13;18.40;;;16.33;;
61741;SDS011;47650;49.848;9.620;2024-03-06T09:39:43;19.67;;;17.58;;
61741;SDS011;47650;49.848;9.620;2024-03-06T09:44:46;19.70;;;16.02;;
61741;SDS011;47650;49.848;9.620;2024-03-06T09:47:13;20.08;;;16.77;;
61741;SDS011;47650;49.848;9.620;2024-03-06T09:49:43;19.55;;;17.02;;
61741;SDS011;47650;49.848;9.620;2024-03-06T09:52:08;17.80;;;15.15;;
61741;SDS011;47650;49.848;9.620;2024-03-06T09:54:35;19.13;;;17.00;;
61741;SDS011;47650;49.848;9.620;2024-03-06T09:57:01;20.80;;;16.30;;
61741;SDS011;47650;49.848;9.620;2024-03-06T09:59:26;19.85;;;16.40;;
61741;SDS011;47650;49.848;9.620;2024-03-06T10:01:56;19.73;;;17.23;;
61741;SDS011;47650;49.848;9.620;2024-03-06T10:04:26;20.85;;;17.02;;
61741;SDS011;47650;49.848;9.620;2024-03-06T10:06:58;21.27;;;17.40;;
61741;SDS011;47650;49.848;9.620;2024-03-06T10:09:25;19.90;;;16.60;;
61741;SDS011;47650;49.848;9.620;2024-03-06T10:11:58;20.30;;;16.23;;
61741;SDS011;47650;49.848;9.620;2024-03-06T10:14:23;21.33;;;16.25;;
61741;SDS011;47650;49.848;9.620;2024-03-06T10:16:57;21.23;;;16.10;;
61741;SDS011;47650;49.848;9.620;2024-03-06T10:19:24;21.48;;;16.77;;
61741;SDS011;47650;49.848;9.620;2024-03-06T10:21:52;20.55;;;16.08;;
61741;SDS011;47650;49.848;9.620;2024-03-06T10:24:21;22.02;;;16.80;;
61741;SDS011;47650;49.848;9.620;2024-03-06T10:26:51;21.60;;;17.17;;
61741;SDS011;47650;49.848;9.620;2024-03-06T10:29:19;21.85;;;17.52;;
61741;SDS011;47650;49.848;9.620;2024-03-06T10:31:47;23.38;;;17.70;;
61741;SDS011;47650;49.848;9.620;2024-03-06T10:34:14;25.17;;;18.38;;
61741;SDS011;47650;49.848;9.620;2024-03-06T10:36:42;26.45;;;19.90;;
61741;SDS011;47650;49.848;9.620;2024-03-06T10:39:08;23.88;;;19.90;;
61741;SDS011;47650;49.848;9.620;2024-03-06T10:41:45;23.33;;;18.45;;
61741;SDS011;47650;49.848;9.620;2024-03-06T10:44:11;30.67;;;21.35;;
61741;SDS011;47650;49.848;9.620;2024-03-06T10:46:43;25.58;;;19.30;;
61741;SDS011;47650;49.848;9.620;2024-03-06T10:49:13;38.90;;;23.60;;
61741;SDS011;47650;49.848;9.620;2024-03-06T10:51:42;30.02;;;20.88;;
61741;SDS011;47650;49.848;9.620;2024-03-06T10:54:09;24.90;;;18.55;;
61741;SDS011;47650;49.848;9.620;2024-03-06T10:56:39;24.77;;;19.30;;
61741;SDS011;47650;49.848;9.620;2024-03-06T10:59:07;21.98;;;18.38;;
61741;SDS011;47650;49.848;9.620;2024-03-06T11:01:37;22.10;;;18.58;;
61741;SDS011;47650;49.848;9.620;2024-03-06T11:04:08;23.65;;;18.60;;
61741;SDS011;47650;49.848;9.620;2024-03-06T11:06:37;26.30;;;20.27;;
61741;SDS011;47650;49.848;9.620;2024-03-06T11:09:03;21.00;;;18.23;;
61741;SDS011;47650;49.848;9.620;2024-03-06T11:11:46;23.95;;;19.13;;
61741;SDS011;47650;49.848;9.620;2024-03-06T11:14:12;26.70;;;19.77;;
61741;SDS011;47650;49.848;9.620;2024-03-06T11:16:55;25.02;;;18.27;;
61741;SDS011;47650;49.848;9.620;2024-03-06T11:19:33;20.63;;;16.98;;
61741;SDS011;47650;49.848;9.620;2024-03-06T11:28:18;21.45;;;16.88;;
61741;SDS011;47650;49.848;9.620;2024-03-06T11:31:05;20.75;;;15.80;;
61741;SDS011;47650;49.848;9.620;2024-03-06T11:33:35;17.08;;;14.95;;
61741;SDS011;47650;49.848;9.620;2024-03-06T11:36:15;21.05;;;16.67;;
61741;SDS011;47650;49.848;9.620;2024-03-06T11:39:01;19.48;;;17.05;;
61741;SDS011;47650;49.848;9.620;2024-03-06T11:41:47;21.10;;;17.08;;
61741;SDS011;47650;49.848;9.620;2024-03-06T11:44:17;19.48;;;16.58;;
61741;SDS011;47650;49.848;9.620;2024-03-06T11:46:49;20.02;;;16.50;;
61741;SDS011;47650;49.848;9.620;2024-03-06T11:49:29;18.20;;;16.15;;
61741;SDS011;47650;49.848;9.620;2024-03-06T11:52:02;17.55;;;15.02;;
61741;SDS011;47650;49.848;9.620;2024-03-06T11:54:30;19.65;;;16.08;;
61741;SDS011;47650;49.848;9.620;2024-03-06T11:56:59;21.38;;;17.13;;
61741;SDS011;47650;49.848;9.620;2024-03-06T11:59:26;18.10;;;16.00;;
61741;SDS011;47650;49.848;9.620;2024-03-06T12:01:54;18.98;;;15.60;;
61741;SDS011;47650;49.848;9.620;2024-03-06T12:04:21;18.92;;;15.82;;
61741;SDS011;47650;49.848;9.620;2024-03-06T12:06:47;18.70;;;14.95;;
61741;SDS011;47650;49.848;9.620;2024-03-06T12:09:13;18.05;;;15.20;;
61741;SDS011;47650;49.848;9.620;2024-03-06T12:11:39;18.08;;;15.23;;
61741;SDS011;47650;49.848;9.620;2024-03-06T12:14:04;18.17;;;15.43;;
61741;SDS011;47650;49.848;9.620;2024-03-06T12:16:30;17.63;;;15.82;;
61741;SDS011;47650;49.848;9.620;2024-03-06T12:18:57;18.02;;;15.55;;
61741;SDS011;47650;49.848;9.620;2024-03-06T12:21:32;16.60;;;14.80;;
61741;SDS011;47650;49.848;9.620;2024-03-06T12:24:07;18.40;;;15.90;;
61741;SDS011;47650;49.848;9.620;2024-03-06T12:26:36;19.30;;;16.83;;
61741;SDS011;47650;49.848;9.620;2024-03-06T12:29:08;17.88;;;15.85;;
61741;SDS011;47650;49.848;9.620;2024-03-06T12:31:37;16.83;;;15.05;;
61741;SDS011;47650;49.848;9.620;2024-03-06T12:34:07;16.50;;;14.80;;
61741;SDS011;47650;49.848;9.620;2024-03-06T12:36:42;17.00;;;15.18;;
61741;SDS011;47650;49.848;9.620;2024-03-06T12:39:08;18.33;;;16.05;;
61741;SDS011;47650;49.848;9.620;2024-03-06T12:41:38;15.88;;;14.25;;
61741;SDS011;47650;49.848;9.620;2024-03-06T12:44:04;18.27;;;16.38;;
61741;SDS011;47650;49.848;9.620;2024-03-06T12:46:32;16.65;;;14.95;;
61741;SDS011;47650;49.848;9.620;2024-03-06T12:48:58;17.23;;;14.45;;
61741;SDS011;47650;49.848;9.620;2024-03-06T12:51:23;17.38;;;15.55;;
61741;SDS011;47650;49.848;9.620;2024-03-06T12:53:56;16.00;;;14.20;;
61741;SDS011;47650;49.848;9.620;2024-03-06T12:56:26;19.15;;;14.88;;
61741;SDS011;47650;49.848;9.620;2024-03-06T12:58:51;16.95;;;14.43;;
61741;SDS011;47650;49.848;9.620;2024-03-06T13:01:17;16.00;;;13.98;;
61741;SDS011;47650;49.848;9.620;2024-03-06T13:03:42;15.65;;;13.93;;
61741;SDS011;47650;49.848;9.620;2024-03-06T13:06:09;17.35;;;15.45;;
61741;SDS011;47650;49.848;9.620;2024-03-06T13:08:46;15.93;;;14.20;;
61741;SDS011;47650;49.848;9.620;2024-03-06T13:11:12;16.00;;;14.30;;
61741;SDS011;47650;49.848;9.620;2024-03-06T13:13:37;16.52;;;14.82;;
61741;SDS011;47650;49.848;9.620;2024-03-06T13:16:04;16.42;;;14.73;;
61741;SDS011;47650;49.848;9.620;2024-03-06T13:18:30;17.42;;;14.57;;
61741;SDS011;47650;49.848;9.620;2024-03-06T13:20:56;16.52;;;14.90;;
61741;SDS011;47650;49.848;9.620;2024-03-06T13:23:25;15.30;;;13.73;;
61741;SDS011;47650;49.848;9.620;2024-03-06T13:25:51;14.80;;;13.30;;
61741;SDS011;47650;49.848;9.620;2024-03-06T13:28:17;14.52;;;13.13;;
61741;SDS011;47650;49.848;9.620;2024-03-06T13:30:46;15.88;;;14.25;;
61741;SDS011;47650;49.848;9.620;2024-03-06T13:33:12;15.63;;;14.02;;
61741;SDS011;47650;49.848;9.620;2024-03-06T13:35:37;14.68;;;13.18;;
61741;SDS011;47650;49.848;9.620;2024-03-06T13:38:02;14.85;;;13.40;;
61741;SDS011;47650;49.848;9.620;2024-03-06T13:40:28;14.57;;;13.18;;
61741;SDS011;47650;49.848;9.620;2024-03-06T13:42:54;13.65;;;12.25;;
61741;SDS011;47650;49.848;9.620;2024-03-06T13:45:20;14.10;;;12.70;;
61741;SDS011;47650;49.848;9.620;2024-03-06T13:47:45;13.82;;;12.27;;
61741;SDS011;47650;49.848;9.620;2024-03-06T13:50:14;13.23;;;11.90;;
61741;SDS011;47650;49.848;9.620;2024-03-06T13:52:40;14.00;;;12.60;;
61741;SDS011;47650;49.848;9.620;2024-03-06T13:55:06;14.63;;;12.55;;
61741;SDS011;47650;49.848;9.620;2024-03-06T13:57:34;12.80;;;11.55;;
61741;SDS011;47650;49.848;9.620;2024-03-06T14:00:03;15.25;;;11.70;;
61741;SDS011;47650;49.848;9.620;2024-03-06T14:02:30;12.65;;;11.35;;
61741;SDS011;47650;49.848;9.620;2024-03-06T14:04:56;13.45;;;11.52;;
61741;SDS011;47650;49.848;9.620;2024-03-06T14:07:23;12.32;;;11.02;;
61741;SDS011;47650;49.848;9.620;2024-03-06T14:09:49;12.60;;;11.07;;
61741;SDS011;47650;49.848;9.620;2024-03-06T14:12:15;12.13;;;10.93;;
61741;SDS011;47650;49.848;9.620;2024-03-06T14:14:41;13.07;;;11.77;;
61741;SDS011;47650;49.848;9.620;2024-03-06T14:17:15;12.52;;;10.95;;
61741;SDS011;47650;49.848;9.620;2024-03-06T14:19:47;12.18;;;10.90;;
61741;SDS011;47650;49.848;9.620;2024-03-06T14:22:13;14.43;;;12.48;;
61741;SDS011;47650;49.848;9.620;2024-03-06T14:27:14;13.48;;;12.07;;
61741;SDS011;47650;49.848;9.620;2024-03-06T14:29:39;14.32;;;12.93;;
61741;SDS011;47650;49.848;9.620;2024-03-06T14:32:06;14.07;;;12.23;;